Stations météo

Publicité
Lus-La-Croix-Haute, France (7587): Température de l'air & dewpoint: 14.08.2019 14:00:00 - 20.08.2019 14:00:00 (CEST)Lus-La-Croix-Haute, France (7587): Vitesse du vent & gusts: 14.08.2019 14:00:00 - 20.08.2019 14:00:00 (CEST)Lus-La-Croix-Haute, France (7587): Direction du vent: 14.08.2019 14:00:00 - 20.08.2019 14:00:00 (CEST)Lus-La-Croix-Haute, France (7587): Quantités de précipitations: 14.08.2019 14:00:00 - 20.08.2019 14:00:00 (CEST)
Date & Time tt [°C] td [°C] ff [km/h] ff [knt] fx [km/h] fx [knt] dd rr [mm]
20.08.2019 14:00:00 15,1 12,0 22 12 39 21 WNW -
20.08.2019 13:00:00 - - - - - - - -
20.08.2019 12:00:00 15,6 13,3 11 6 22 12 NW 0,0
20.08.2019 11:00:00 15,6 14,0 8 4 28 15 NW 0,0
20.08.2019 10:00:00 14,8 13,8 9 5 22 12 NW 0,0
20.08.2019 09:00:00 14,5 13,7 4 2 18 10 SW 0,6
20.08.2019 08:00:00 14,3 13,7 4 2 13 7 W -
20.08.2019 07:00:00 14,3 13,5 0 0 8 4 N 0,0
20.08.2019 06:00:00 14,3 13,3 4 2 13 7 NNW 0,2
20.08.2019 05:00:00 14,6 13,6 4 2 13 7 NNW 0,0
20.08.2019 04:00:00 14,4 13,4 4 2 15 8 NW 0,0
20.08.2019 03:00:00 14,5 13,4 2 1 13 7 NW 0,0
20.08.2019 02:00:00 14,7 13,4 5 3 16 9 N -
20.08.2019 01:00:00 15,1 13,8 4 2 31 17 SE 0,0
20.08.2019 00:00:00 15,6 14,1 11 6 46 25 N 0,0
19.08.2019 23:00:00 16,2 13,9 4 2 16 9 S 0,0
19.08.2019 22:00:00 17,1 14,0 0 0 11 6 N 0,0
19.08.2019 21:00:00 18,9 14,0 5 3 22 12 N 0,0
19.08.2019 20:00:00 20,9 14,1 13 7 26 14 NNW 0,0
19.08.2019 19:00:00 23,5 12,2 9 5 34 18 SSE 0,0
19.08.2019 18:00:00 25,4 12,6 9 5 24 13 WSW 0,0
19.08.2019 17:00:00 25,7 12,2 8 4 22 12 SSW 0,0
19.08.2019 16:00:00 26,3 10,8 11 6 24 13 SSE 0,0
19.08.2019 15:00:00 25,7 10,7 18 10 - - S -
19.08.2019 14:00:00 26,7 - 11 6 34 18 SSW -
19.08.2019 13:00:00 24,5 13,7 11 6 28 15 NW 0,0
19.08.2019 12:00:00 24,7 9,4 11 6 22 12 S 0,0
19.08.2019 11:00:00 21,9 11,6 2 1 9 5 NNW 0,0
19.08.2019 10:00:00 18,6 12,8 5 3 11 6 W 0,0
19.08.2019 09:00:00 16,9 12,0 9 5 18 10 NNW 0,0
19.08.2019 08:00:00 15,6 12,5 0 0 24 13 N -
19.08.2019 07:00:00 15,2 11,4 9 5 31 17 NW 0,0
19.08.2019 06:00:00 14,9 11,1 2 1 9 5 NW 0,0
19.08.2019 05:00:00 15,4 10,4 4 2 9 5 N 0,0
19.08.2019 04:00:00 16,6 11,5 4 2 13 7 E 0,0
19.08.2019 03:00:00 17,5 12,4 4 2 16 9 ESE 0,0
19.08.2019 02:00:00 18,2 13,5 4 2 22 12 NNE -
19.08.2019 01:00:00 18,9 14,2 9 5 26 14 SSW 0,0
19.08.2019 00:00:00 20,0 13,9 13 7 34 18 SSW 0,0
18.08.2019 23:00:00 21,2 13,9 16 9 31 17 S 0,0
18.08.2019 22:00:00 22,1 14,2 21 11 44 24 S 0,0
18.08.2019 21:00:00 23,1 13,6 16 9 48 26 S 0,0
18.08.2019 20:00:00 24,6 12,5 22 12 42 23 SSE -
18.08.2019 19:00:00 25,9 11,6 16 9 39 21 SSE 0,0
18.08.2019 18:00:00 27,9 12,3 21 11 55 30 SSE 0,0
18.08.2019 17:00:00 28,7 11,3 13 7 48 26 SSE 0,0
18.08.2019 16:00:00 29,1 10,2 13 7 44 24 S 0,0
18.08.2019 15:00:00 28,4 10,1 13 7 39 21 SE 0,0
18.08.2019 14:00:00 27,4 8,8 11 6 39 21 SSE -
18.08.2019 13:00:00 26,9 9,3 13 7 44 24 SSW 0,0
18.08.2019 12:00:00 25,7 7,8 18 10 44 24 S 0,0
18.08.2019 11:00:00 24,6 8,1 16 9 39 21 SSW 0,0
18.08.2019 10:00:00 21,9 9,1 11 6 29 16 S 0,0
18.08.2019 09:00:00 13,9 10,3 2 1 9 5 SSE 0,0
18.08.2019 08:00:00 9,5 8,1 2 1 4 2 E -
18.08.2019 07:00:00 9,1 7,5 0 0 4 2 N 0,0
18.08.2019 06:00:00 9,7 7,8 0 0 4 2 N 0,0
18.08.2019 05:00:00 10,1 7,9 2 1 4 2 N 0,0
18.08.2019 04:00:00 10,6 7,8 0 0 4 2 N 0,0
18.08.2019 03:00:00 11,5 8,0 0 0 4 2 N 0,0
18.08.2019 02:00:00 12,4 7,9 0 0 5 3 N -
18.08.2019 01:00:00 13,4 8,2 4 2 4 2 E 0,0
18.08.2019 00:00:00 14,7 8,0 2 1 8 4 NNW 0,0
17.08.2019 23:00:00 16,7 7,9 0 0 5 3 N 0,0
17.08.2019 22:00:00 18,6 8,0 0 0 9 5 N 0,0
17.08.2019 21:00:00 20,8 7,8 4 2 9 5 NW 0,0
17.08.2019 20:00:00 24,8 7,9 2 1 18 10 SSE -
17.08.2019 19:00:00 28,7 8,4 5 3 16 9 W 0,0
17.08.2019 18:00:00 28,7 7,8 4 2 22 12 E 0,0
17.08.2019 17:00:00 28,6 8,8 5 3 28 15 W 0,0
17.08.2019 16:00:00 29,0 5,1 9 5 18 10 S 0,0
17.08.2019 15:00:00 26,8 6,8 5 3 22 12 NNW 0,0
17.08.2019 14:00:00 28,0 5,5 9 5 22 12 ESE -
17.08.2019 13:00:00 27,1 4,8 8 4 22 12 ESE 0,0
17.08.2019 12:00:00 25,6 6,7 8 4 18 10 SSE 0,0
17.08.2019 11:00:00 22,4 7,4 2 1 9 5 ENE 0,0
17.08.2019 10:00:00 16,9 8,1 2 1 8 4 WNW 0,0
17.08.2019 09:00:00 12,7 6,3 0 0 5 3 N 0,0
17.08.2019 08:00:00 8,0 4,9 2 1 5 3 SE -
17.08.2019 07:00:00 7,5 4,1 2 1 8 4 SE 0,0
17.08.2019 06:00:00 7,7 4,1 0 0 8 4 N 0,0
17.08.2019 05:00:00 7,8 4,0 0 0 8 4 N 0,0
17.08.2019 04:00:00 8,3 4,3 2 1 8 4 NNE 0,0
17.08.2019 03:00:00 9,1 4,9 2 1 8 4 E 0,0
17.08.2019 02:00:00 9,7 5,1 0 0 5 3 N -
17.08.2019 01:00:00 10,4 4,7 4 2 5 3 N 0,0
17.08.2019 00:00:00 11,2 4,9 0 0 8 4 N 0,0
16.08.2019 23:00:00 12,1 6,2 4 2 8 4 E 0,0
16.08.2019 22:00:00 14,0 7,3 4 2 8 4 S 0,0
16.08.2019 21:00:00 17,0 8,4 4 2 11 6 NE 0,0
16.08.2019 20:00:00 21,3 7,1 8 4 21 11 NNW -
16.08.2019 19:00:00 24,1 11,1 9 5 34 18 NW 0,0
16.08.2019 18:00:00 24,5 9,6 13 7 28 15 NW 0,0
16.08.2019 17:00:00 26,1 8,1 9 5 28 15 WNW 0,0
16.08.2019 16:00:00 25,8 10,4 15 8 31 17 WNW 0,0
16.08.2019 15:00:00 26,2 3,4 8 4 28 15 S 0,0
16.08.2019 14:00:00 25,5 7,1 8 4 24 13 S -
16.08.2019 13:00:00 22,4 7,8 8 4 21 11 NW 0,0
16.08.2019 12:00:00 20,2 6,9 8 4 34 18 NW 0,0
16.08.2019 11:00:00 17,0 8,2 18 10 35 19 WNW 0,0
16.08.2019 10:00:00 15,1 8,6 13 7 29 16 WNW 0,0
16.08.2019 09:00:00 13,3 8,4 11 6 26 14 NW 0,0
16.08.2019 08:00:00 11,2 7,1 9 5 29 16 NW -
16.08.2019 07:00:00 10,6 6,9 5 3 28 15 N 0,0
16.08.2019 06:00:00 11,1 7,0 13 7 31 17 NW 0,0
16.08.2019 05:00:00 10,5 6,4 11 6 28 15 NNW 0,0
16.08.2019 04:00:00 11,9 6,4 11 6 37 20 NNW 0,0
16.08.2019 03:00:00 12,0 6,3 13 7 28 15 NNW 0,0
16.08.2019 02:00:00 13,4 6,5 5 3 39 21 N -
16.08.2019 01:00:00 13,5 7,5 15 8 46 25 NNW 0,0
16.08.2019 00:00:00 13,7 7,7 11 6 34 18 NNW 0,0
15.08.2019 23:00:00 14,2 8,2 13 7 34 18 NW 0,0
15.08.2019 22:00:00 15,2 9,5 18 10 39 21 NW 0,0
15.08.2019 21:00:00 16,2 10,3 21 11 44 24 NW 0,0
15.08.2019 20:00:00 17,8 10,7 16 9 50 27 NNW -
15.08.2019 19:00:00 20,0 9,8 26 14 50 27 NNW 0,0
15.08.2019 18:00:00 21,2 10,7 22 12 48 26 NNW 0,0
15.08.2019 17:00:00 22,2 12,2 16 9 39 21 NW 0,0
15.08.2019 16:00:00 20,2 10,6 15 8 34 18 NW 0,0
15.08.2019 15:00:00 23,2 10,6 13 7 37 20 NW 0,0
15.08.2019 14:00:00 21,3 10,5 15 8 34 18 NW -
15.08.2019 13:00:00 22,9 8,9 9 5 22 12 N 0,0
15.08.2019 12:00:00 22,0 8,8 5 3 15 8 ESE 0,0
15.08.2019 11:00:00 19,2 8,8 2 1 11 6 SW 0,0
15.08.2019 10:00:00 16,3 8,3 4 2 8 4 SE 0,0
15.08.2019 09:00:00 12,7 7,8 4 2 8 4 SSE 0,0
15.08.2019 08:00:00 9,5 6,0 0 0 9 5 N -
15.08.2019 07:00:00 8,8 5,4 0 0 8 4 N 0,0
15.08.2019 06:00:00 9,2 5,7 4 2 8 4 ENE 0,0
15.08.2019 05:00:00 9,6 5,8 4 2 11 6 SSE 0,0
15.08.2019 04:00:00 10,1 6,2 4 2 9 5 ENE 0,0
15.08.2019 03:00:00 10,9 6,4 2 1 9 5 E 0,0
15.08.2019 02:00:00 11,4 6,9 2 1 11 6 NE -
15.08.2019 01:00:00 11,4 7,3 4 2 13 7 NE 0,0
15.08.2019 00:00:00 12,2 7,3 9 5 16 9 N 0,0
14.08.2019 23:00:00 12,5 7,6 5 3 11 6 N 0,0
14.08.2019 22:00:00 13,7 7,7 8 4 16 9 N 0,0
14.08.2019 21:00:00 15,4 8,2 9 5 31 17 NW 0,0
14.08.2019 20:00:00 17,3 9,2 18 10 34 18 NW -
14.08.2019 19:00:00 21,0 9,3 13 7 39 21 NNW 0,0
14.08.2019 18:00:00 21,9 7,3 15 8 39 21 NNW 0,0
14.08.2019 17:00:00 21,9 6,9 16 9 37 20 NNW 0,0
14.08.2019 16:00:00 21,9 6,5 16 9 46 25 NNW 0,0
14.08.2019 15:00:00 - - - - - - - -
14.08.2019 14:00:00 20,5 5,7 16 9 35 19 NNW -

tt = Température de l'air
td = dewpoint
ff = Vitesse du vent
fx = gusts
dd = Direction du vent
rr = Quantités de précipitations

stations d'obs. à proximité